Terminal Aerodrome Forecast
Issued by NWS New Orleans/Baton Rouge, LA

Home | Current Version | Previous Version | Text Only | Print | Product List | Glossary On
Versions: 1 2 3 4 5 6 7 8 9 10 11 12 13
000
FTUS44 KLIX 250823 AAA
TAFBTR
TAF AMD
KBTR 250823Z 2508/2606 12005KT P6SM SCT010 BKN020
     FM251500 16009KT P6SM SCT025 BKN050
     FM260400 16008KT P6SM BKN020=

USA.gov is the U.S. government's official web portal to all federal, state and local government web resources and services.